Time;durP1;ratioP1;P1;durP2;ratioP2;P2;SDS_P1;SDS_P2;PMS_P1;PMS_P2;Temp;Humidity;BMP_temperature;BMP_pressure;BME280_temperature;BME280_humidity;BME280_pressure;Samples;Min_cycle;Max_cycle;Signal;HPM_P1;HPM_P2
2021/11/30 00:00:57;;;;;;;0.63;0.50;;;;;;;4.85;78.93;95834.94;5059220;28;20465;-53
2021/11/30 00:03:23;;;;;;;0.70;0.40;;;;;;;4.98;78.01;95823.69;5030972;28;20045;-55
2021/11/30 00:05:49;;;;;;;1.60;0.43;;;;;;;4.54;78.84;95753.88;5031197;28;20029;-56
2021/11/30 00:08:16;;;;;;;0.80;0.40;;;;;;;4.88;79.06;95773.63;5032123;28;20021;-57
2021/11/30 00:10:46;;;;;;;0.55;0.55;;;;;;;4.88;78.42;95777.06;5032155;28;20021;-56
2021/11/30 00:13:18;;;;;;;2.20;0.50;;;;;;;4.89;79.00;95756.72;5031988;28;20030;-55
2021/11/30 00:15:45;;;;;;;0.60;0.38;;;;;;;4.91;79.10;95746.72;5032173;28;20033;-56
2021/11/30 00:18:12;;;;;;;0.90;0.50;;;;;;;4.90;79.24;95734.50;5031914;28;20064;-54
2021/11/30 00:20:39;;;;;;;0.82;0.40;;;;;;;4.83;78.30;95681.41;5032598;28;20335;-56
2021/11/30 00:23:05;;;;;;;0.50;0.40;;;;;;;5.07;77.41;95699.78;5033960;28;20037;-56
2021/11/30 00:25:31;;;;;;;1.50;0.52;;;;;;;4.73;79.04;95673.78;5033805;28;20434;-55
2021/11/30 00:27:57;;;;;;;2.78;0.60;;;;;;;4.94;78.79;95672.13;5033530;28;20032;-58
2021/11/30 00:30:24;;;;;;;1.20;0.50;;;;;;;4.72;79.17;95650.94;5034013;28;20052;-55
2021/11/30 00:32:51;;;;;;;0.35;0.30;;;;;;;4.83;78.73;95609.88;5033593;28;20045;-57
2021/11/30 00:35:17;;;;;;;1.40;0.70;;;;;;;5.03;78.80;95622.47;5033684;28;20029;-58
2021/11/30 00:37:42;;;;;;;0.50;0.50;;;;;;;4.97;79.35;95615.28;5033701;28;20056;-58
2021/11/30 00:40:09;;;;;;;0.82;0.20;;;;;;;5.02;78.94;95595.13;5033737;28;20849;-58
2021/11/30 00:42:36;;;;;;;0.98;0.50;;;;;;;4.96;79.66;95593.25;5033509;28;20437;-58
2021/11/30 00:45:04;;;;;;;1.10;0.43;;;;;;;5.14;79.24;95589.28;5033287;28;20120;-55
2021/11/30 00:47:30;;;;;;;0.32;0.25;;;;;;;5.11;78.85;95563.19;5033364;28;20038;-55
2021/11/30 00:49:58;;;;;;;1.00;0.40;;;;;;;4.96;79.36;95550.84;5033141;28;20049;-56
2021/11/30 00:52:24;;;;;;;0.30;0.22;;;;;;;5.03;79.18;95540.28;5033170;28;20036;-58
2021/11/30 00:54:50;;;;;;;1.10;0.60;;;;;;;4.88;80.34;95521.84;5033762;28;20064;-55
2021/11/30 00:57:18;;;;;;;1.00;0.52;;;;;;;4.93;80.34;95508.81;5032123;28;20117;-57
2021/11/30 00:59:43;;;;;;;0.20;0.20;;;;;;;5.09;79.59;95506.88;5033160;28;20116;-56
2021/11/30 01:02:09;;;;;;;0.52;0.40;;;;;;;4.91;80.04;95463.16;5033567;28;20109;-55
2021/11/30 01:04:35;;;;;;;0.40;0.40;;;;;;;5.08;80.04;95481.38;5033114;28;20072;-57
2021/11/30 01:07:01;;;;;;;0.60;0.40;;;;;;;5.15;79.35;95468.97;5032890;28;20033;-56
2021/11/30 01:09:27;;;;;;;0.55;0.40;;;;;;;5.12;79.52;95461.41;5032947;28;20091;-58
2021/11/30 01:11:53;;;;;;;0.95;0.50;;;;;;;5.14;79.88;95431.03;5032259;28;20033;-56
2021/11/30 01:14:21;;;;;;;0.70;0.52;;;;;;;5.10;80.23;95434.28;5033203;28;20083;-56
2021/11/30 01:16:47;;;;;;;1.13;0.32;;;;;;;5.15;79.72;95411.44;5032977;28;20021;-57
2021/11/30 01:19:14;;;;;;;0.40;0.40;;;;;;;4.98;80.81;95410.97;5032843;28;20075;-55
2021/11/30 01:21:41;;;;;;;0.52;0.50;;;;;;;5.21;79.92;95404.53;5033189;28;20164;-55
2021/11/30 01:24:08;;;;;;;0.90;0.60;;;;;;;5.25;79.71;95384.56;5032934;28;20120;-55
2021/11/30 01:26:34;;;;;;;0.57;0.50;;;;;;;5.14;80.71;95382.50;5032619;28;20057;-56
2021/11/30 01:29:01;;;;;;;0.35;0.30;;;;;;;5.41;79.57;95354.19;5032517;28;20026;-53
2021/11/30 01:31:26;;;;;;;0.98;0.50;;;;;;;5.32;79.66;95353.59;5032844;28;20065;-56
2021/11/30 01:33:52;;;;;;;1.08;0.50;;;;;;;5.34;79.39;95323.41;5032922;28;20126;-54
2021/11/30 01:36:18;;;;;;;0.85;0.70;;;;;;;5.27;80.24;95320.72;5032527;28;20040;-56
2021/11/30 01:38:44;;;;;;;0.80;0.70;;;;;;;5.24;80.51;95315.84;5032178;28;20034;-55
2021/11/30 01:41:11;;;;;;;0.98;0.80;;;;;;;5.22;80.79;95313.38;5033000;28;20029;-56
2021/11/30 01:43:42;;;;;;;1.00;0.90;;;;;;;5.24;80.79;95286.66;5031210;28;20048;-56
2021/11/30 01:51:28;;;;;;;1.67;0.70;;;;;;;5.47;80.99;95249.13;5032447;28;20029;-57
2021/11/30 01:53:55;;;;;;;1.95;0.90;;;;;;;5.40;81.10;95248.31;5032370;28;20037;-52
2021/11/30 01:56:21;;;;;;;1.45;1.20;;;;;;;5.40;81.24;95224.44;5031474;28;20056;-55
2021/11/30 01:58:48;;;;;;;2.25;1.05;;;;;;;5.39;81.43;95220.16;5032142;28;20462;-58
2021/11/30 02:01:14;;;;;;;1.02;0.90;;;;;;;5.49;81.67;95220.56;5032518;28;20553;-58
2021/11/30 02:03:41;;;;;;;1.25;1.02;;;;;;;5.56;81.34;95210.78;5031739;28;20029;-58
2021/11/30 02:06:06;;;;;;;1.40;1.10;;;;;;;5.62;81.35;95193.19;5030390;28;20362;-57
2021/11/30 02:08:32;;;;;;;1.25;1.00;;;;;;;5.46;81.02;95152.00;5031953;28;20036;-54
2021/11/30 02:10:58;;;;;;;1.05;0.95;;;;;;;5.65;81.28;95165.44;5031369;28;20103;-56
2021/11/30 02:13:44;;;;;;;2.15;1.02;;;;;;;5.68;81.12;95167.69;5031083;28;20037;-55
2021/11/30 02:16:09;;;;;;;1.00;0.95;;;;;;;5.67;81.17;95148.31;5031497;28;20044;-55
2021/11/30 02:18:44;;;;;;;1.30;1.20;;;;;;;5.55;81.88;95118.94;5031702;28;20382;-56
2021/11/30 02:21:11;;;;;;;1.30;1.13;;;;;;;5.68;82.21;95141.97;5031499;28;20381;-57
2021/11/30 02:23:53;;;;;;;1.48;1.35;;;;;;;5.79;82.11;95124.59;5031434;28;20033;-54
2021/11/30 02:26:19;;;;;;;1.50;1.35;;;;;;;5.87;81.49;95121.69;5030188;28;20458;-59
2021/11/30 02:28:47;;;;;;;1.50;1.40;;;;;;;5.90;81.97;95117.78;5031315;28;20064;-56
2021/11/30 02:31:16;;;;;;;1.67;1.40;;;;;;;6.00;81.72;95109.38;5031100;28;20045;-58
2021/11/30 02:33:42;;;;;;;1.65;1.48;;;;;;;6.02;81.68;95086.09;5031526;28;20045;-57
2021/11/30 02:39:11;;;;;;;2.20;1.70;;;;;;;6.07;82.45;95085.47;5031114;28;20025;-58
2021/11/30 02:41:38;;;;;;;4.28;1.55;;;;;;;6.21;82.22;95083.56;5031684;28;20174;-59
2021/11/30 02:44:05;;;;;;;2.70;2.00;;;;;;;6.26;82.21;95068.63;5030983;28;20041;-58
2021/11/30 02:46:40;;;;;;;4.00;2.20;;;;;;;6.36;81.61;95060.19;5031175;28;20037;-58
2021/11/30 02:49:09;;;;;;;2.28;1.83;;;;;;;6.42;81.67;95069.94;5031312;28;20026;-55
2021/11/30 02:51:36;;;;;;;3.05;2.20;;;;;;;6.43;82.11;95062.78;5031164;28;20029;-55
2021/11/30 02:54:07;;;;;;;3.72;2.40;;;;;;;6.25;82.14;95015.72;5030782;28;20402;-52
2021/11/30 02:56:39;;;;;;;2.80;2.47;;;;;;;6.49;82.70;95051.31;5031501;28;20026;-58
2021/11/30 02:59:04;;;;;;;2.50;2.30;;;;;;;6.51;82.62;95045.75;5030134;28;20416;-57
2021/11/30 03:01:30;;;;;;;4.07;2.63;;;;;;;6.54;82.48;95035.50;5030833;28;20044;-57
2021/11/30 03:03:55;;;;;;;2.50;2.17;;;;;;;6.51;83.06;95035.13;5030008;28;20367;-57
2021/11/30 03:06:21;;;;;;;3.10;2.80;;;;;;;6.58;83.37;95028.72;5031247;28;20041;-57
2021/11/30 03:08:47;;;;;;;4.75;2.70;;;;;;;6.66;83.10;95022.34;5030954;28;20048;-59
2021/11/30 03:11:13;;;;;;;4.07;2.90;;;;;;;6.51;82.74;94995.28;5030646;28;20033;-58
2021/11/30 03:13:38;;;;;;;3.03;2.50;;;;;;;6.72;83.02;95018.00;5030600;28;20044;-58
2021/11/30 03:16:04;;;;;;;4.15;2.40;;;;;;;6.77;83.54;95007.53;5031078;28;20033;-59
2021/11/30 03:18:31;;;;;;;3.15;2.60;;;;;;;6.87;83.42;95023.81;5031015;28;20477;-56
2021/11/30 03:20:57;;;;;;;4.05;2.85;;;;;;;6.94;83.55;95021.06;5031065;28;20036;-60
2021/11/30 03:23:22;;;;;;;6.78;2.92;;;;;;;7.02;83.53;95014.66;5030448;28;20030;-59
2021/11/30 03:25:48;;;;;;;3.05;2.70;;;;;;;7.06;83.78;95023.81;5031183;28;20493;-58
2021/11/30 03:28:13;;;;;;;2.90;2.60;;;;;;;7.17;83.69;95012.44;5030851;28;20053;-59
2021/11/30 03:30:49;;;;;;;3.85;2.60;;;;;;;7.22;83.83;95019.75;5028847;28;20045;-60
2021/11/30 03:35:58;;;;;;;2.70;2.50;;;;;;;7.45;84.28;95008.44;5031073;28;20065;-59
2021/11/30 03:38:24;;;;;;;3.28;2.60;;;;;;;7.57;84.23;95020.97;5030980;28;20073;-59
2021/11/30 03:40:50;;;;;;;4.43;2.42;;;;;;;7.67;84.13;95000.00;5030422;28;20025;-58
2021/11/30 03:43:15;;;;;;;4.55;2.30;;;;;;;7.73;84.22;95009.72;5030304;28;20504;-60
2021/11/30 03:45:41;;;;;;;2.35;1.48;;;;;;;7.63;84.29;94971.38;5030883;28;20044;-58
2021/11/30 03:48:06;;;;;;;0.90;0.85;;;;;;;7.91;84.16;95016.06;5030717;28;20033;-59
2021/11/30 03:50:32;;;;;;;2.20;1.00;;;;;;;7.97;84.21;95009.03;5030505;28;20033;-59
2021/11/30 03:52:57;;;;;;;4.00;0.90;;;;;;;8.01;84.11;95020.84;5030763;28;20036;-61
2021/11/30 03:55:23;;;;;;;0.60;0.60;;;;;;;8.10;83.86;95024.00;5029332;28;20513;-60
2021/11/30 03:57:48;;;;;;;0.88;0.60;;;;;;;8.03;83.60;95013.44;5030595;28;20400;-59
2021/11/30 04:00:15;;;;;;;1.15;0.30;;;;;;;8.08;83.27;95023.38;5030171;28;20436;-59
2021/11/30 04:02:40;;;;;;;0.80;0.30;;;;;;;8.05;83.17;95024.69;5030013;28;20064;-61
2021/11/30 04:05:08;;;;;;;0.17;0.17;;;;;;;8.02;82.96;95043.78;5030105;28;20040;-60
2021/11/30 04:07:34;;;;;;;0.90;0.22;;;;;;;7.98;82.38;95039.94;5030237;28;20041;-59
2021/11/30 04:10:01;;;;;;;1.55;0.32;;;;;;;7.90;82.78;95065.81;5030675;28;20033;-60
2021/11/30 04:12:28;;;;;;;1.33;0.20;;;;;;;7.87;82.73;95068.13;5030598;28;20091;-60
2021/11/30 04:14:54;;;;;;;0.95;0.40;;;;;;;7.85;83.14;95079.00;5030629;28;20029;-59
2021/11/30 04:17:20;;;;;;;0.10;0.10;;;;;;;7.86;82.65;95087.81;5030073;28;20034;-61
2021/11/30 04:19:46;;;;;;;0.38;0.20;;;;;;;7.74;82.51;95090.41;5031889;28;20021;-60
2021/11/30 04:22:12;;;;;;;0.35;0.30;;;;;;;7.68;82.63;95093.94;5034014;28;20036;-60
2021/11/30 04:24:40;;;;;;;1.17;0.20;;;;;;;7.64;82.93;95114.06;5032433;28;20041;-59
2021/11/30 04:27:05;;;;;;;2.42;0.40;;;;;;;7.58;82.43;95111.25;5033067;28;20042;-57
2021/11/30 04:29:31;;;;;;;0.40;0.20;;;;;;;7.52;82.59;95124.63;5033880;28;20436;-59
2021/11/30 04:31:57;;;;;;;0.20;0.10;;;;;;;7.40;82.69;95112.06;5033458;28;20075;-60
2021/11/30 04:34:23;;;;;;;1.75;0.30;;;;;;;7.43;82.57;95132.06;5033532;28;20417;-59
2021/11/30 04:36:48;;;;;;;0.32;0.20;;;;;;;7.44;82.22;95144.34;5034042;28;20028;-59
2021/11/30 04:39:14;;;;;;;1.52;0.20;;;;;;;7.36;81.08;95132.16;5033373;28;20466;-59
2021/11/30 04:41:42;;;;;;;1.48;0.20;;;;;;;7.24;81.07;95164.00;5033336;28;20385;-60
2021/11/30 04:44:10;;;;;;;0.05;0.00;;;;;;;7.13;80.53;95197.44;5033557;28;20438;-59
2021/11/30 04:46:51;;;;;;;2.75;0.10;;;;;;;6.91;80.58;95185.53;5032164;28;20029;-59
2021/11/30 04:49:27;;;;;;;1.75;0.10;;;;;;;6.83;81.16;95197.22;5033249;28;20029;-60
2021/11/30 04:51:53;;;;;;;0.90;0.20;;;;;;;6.75;80.79;95200.94;5033727;28;20029;-60
2021/11/30 04:54:19;;;;;;;1.85;0.10;;;;;;;6.66;80.67;95207.56;5033545;28;20159;-60
2021/11/30 04:56:44;;;;;;;0.28;0.17;;;;;;;6.54;80.85;95220.69;5033311;28;20112;-60
2021/11/30 04:59:10;;;;;;;0.40;0.17;;;;;;;6.43;80.72;95220.31;5033138;28;20037;-61
2021/11/30 05:01:36;;;;;;;0.45;0.00;;;;;;;6.40;80.91;95241.22;5033109;28;20025;-58
2021/11/30 05:04:01;;;;;;;0.50;0.20;;;;;;;6.41;81.09;95233.00;5032478;28;20493;-60
2021/11/30 05:06:27;;;;;;;0.10;0.10;;;;;;;6.39;80.90;95245.69;5032996;28;20033;-60
2021/11/30 05:08:53;;;;;;;1.20;0.20;;;;;;;6.25;81.54;95241.44;5032811;28;20025;-60
2021/11/30 05:11:19;;;;;;;0.20;0.10;;;;;;;6.33;80.90;95270.44;5033058;28;20461;-62
2021/11/30 05:13:45;;;;;;;1.23;0.20;;;;;;;6.28;81.73;95268.41;5032002;28;20029;-62
2021/11/30 05:16:10;;;;;;;1.00;0.10;;;;;;;6.04;81.53;95243.38;5031349;28;20130;-62
2021/11/30 05:18:36;;;;;;;0.80;0.20;;;;;;;6.29;81.24;95293.94;5032670;28;20021;-61
2021/11/30 05:21:02;;;;;;;0.73;0.20;;;;;;;6.24;81.29;95283.13;5031660;28;20025;-61
2021/11/30 05:23:29;;;;;;;0.28;0.10;;;;;;;6.26;81.17;95293.53;5042382;28;20029;-58
2021/11/30 05:25:57;;;;;;;0.40;0.10;;;;;;;6.27;81.35;95314.59;5038597;28;20017;-59
2021/11/30 05:28:23;;;;;;;1.05;0.25;;;;;;;6.07;81.19;95269.50;5039538;28;20105;-60
2021/11/30 05:30:49;;;;;;;0.50;0.20;;;;;;;6.33;81.33;95323.56;5041049;28;20045;-60
2021/11/30 05:33:15;;;;;;;1.23;0.30;;;;;;;6.35;81.25;95328.66;5040832;28;20029;-59
2021/11/30 05:35:42;;;;;;;0.30;0.10;;;;;;;6.34;80.87;95337.66;5040929;28;20060;-55
2021/11/30 05:38:08;;;;;;;1.85;0.28;;;;;;;6.42;80.87;95327.63;5042041;28;20457;-59
2021/11/30 05:40:33;;;;;;;0.55;0.20;;;;;;;6.45;80.77;95335.16;5040712;28;20033;-61
2021/11/30 05:42:59;;;;;;;0.43;0.20;;;;;;;6.48;80.49;95347.22;5041406;28;20036;-59
2021/11/30 05:45:25;;;;;;;0.20;0.10;;;;;;;6.52;80.33;95350.28;5041753;28;20330;-62
2021/11/30 05:47:51;;;;;;;0.35;0.30;;;;;;;6.51;80.21;95330.03;5032293;28;20358;-60
2021/11/30 05:50:17;;;;;;;0.82;0.20;;;;;;;6.58;80.06;95350.25;5032479;28;20480;-60
2021/11/30 05:52:43;;;;;;;0.68;0.30;;;;;;;6.61;80.04;95352.47;5032506;28;20079;-58
2021/11/30 05:55:10;;;;;;;0.20;0.13;;;;;;;6.66;79.91;95367.81;5032027;28;20038;-58
2021/11/30 05:57:38;;;;;;;0.60;0.17;;;;;;;6.65;79.68;95368.03;5031881;28;20462;-58
2021/11/30 06:00:06;;;;;;;0.35;0.13;;;;;;;6.69;79.88;95354.09;5032365;28;20033;-60
2021/11/30 06:02:39;;;;;;;0.75;0.30;;;;;;;6.66;79.64;95351.06;5032394;28;20055;-58
2021/11/30 06:05:05;;;;;;;0.40;0.30;;;;;;;6.65;79.35;95371.50;5032325;28;20106;-60
2021/11/30 06:07:31;;;;;;;2.40;0.38;;;;;;;6.62;79.32;95350.66;5030505;28;20033;-58
2021/11/30 06:09:56;;;;;;;1.35;0.25;;;;;;;6.63;79.34;95362.09;5039157;28;20040;-59
2021/11/30 06:12:22;;;;;;;0.43;0.10;;;;;;;6.72;78.48;95377.59;5041322;28;20033;-57
2021/11/30 06:14:48;;;;;;;0.50;0.20;;;;;;;6.67;78.41;95385.38;5040525;28;20030;-57
2021/11/30 06:17:14;;;;;;;1.10;0.30;;;;;;;6.69;78.38;95387.84;5038125;28;20033;-59
2021/11/30 06:19:40;;;;;;;0.70;0.22;;;;;;;6.61;77.93;95395.00;5040022;28;20017;-58
2021/11/30 06:22:07;;;;;;;0.43;0.30;;;;;;;6.44;77.38;95384.00;5040045;28;20056;-59
2021/11/30 06:24:33;;;;;;;0.38;0.30;;;;;;;6.64;77.39;95407.06;5037765;28;20057;-58
2021/11/30 06:26:59;;;;;;;1.70;0.30;;;;;;;6.58;77.18;95402.59;5041733;28;20068;-56
2021/11/30 06:29:24;;;;;;;1.33;0.38;;;;;;;6.52;77.20;95430.00;5040014;28;20485;-60
2021/11/30 06:31:50;;;;;;;0.98;0.43;;;;;;;6.49;76.88;95383.41;5041831;28;20033;-59
2021/11/30 06:34:16;;;;;;;1.10;0.40;;;;;;;6.51;76.63;95407.09;5040793;28;20413;-59
2021/11/30 06:36:42;;;;;;;1.13;0.30;;;;;;;6.56;76.58;95423.25;5041881;28;20025;-58
2021/11/30 06:39:07;;;;;;;0.80;0.25;;;;;;;6.61;77.92;95418.13;5037390;28;20025;-60
2021/11/30 06:41:33;;;;;;;0.30;0.30;;;;;;;6.45;76.24;95452.06;5030495;28;20462;-58
2021/11/30 06:43:59;;;;;;;0.77;0.50;;;;;;;6.39;76.50;95444.91;5031200;28;20029;-61
2021/11/30 06:46:25;;;;;;;0.63;0.35;;;;;;;6.26;76.57;95443.09;5031653;28;20036;-60
2021/11/30 06:48:51;;;;;;;0.73;0.45;;;;;;;6.21;75.97;95465.97;5030847;28;20116;-58
2021/11/30 06:51:17;;;;;;;1.27;0.20;;;;;;;6.18;75.96;95475.97;5031580;28;20064;-58
2021/11/30 06:53:43;;;;;;;0.70;0.47;;;;;;;6.11;75.68;95453.91;5031394;28;20068;-60
2021/11/30 06:56:08;;;;;;;0.77;0.30;;;;;;;6.04;74.54;95458.41;5031900;28;20064;-57
2021/11/30 06:58:34;;;;;;;0.50;0.40;;;;;;;6.03;74.60;95470.06;5030569;28;20044;-56
2021/11/30 07:01:00;;;;;;;0.40;0.30;;;;;;;5.82;73.83;95433.84;5031264;28;20068;-57
2021/11/30 07:03:25;;;;;;;1.00;0.35;;;;;;;6.00;73.36;95467.75;5029881;28;20134;-56
2021/11/30 07:06:19;;;;;;;0.28;0.28;;;;;;;6.04;73.35;95487.63;5031300;28;20033;-59
2021/11/30 07:09:05;;;;;;;0.50;0.40;;;;;;;6.01;73.26;95480.03;5031363;28;20041;-58
2021/11/30 07:14:06;;;;;;;0.93;0.45;;;;;;;6.05;73.58;95469.84;5031258;28;20381;-61
2021/11/30 07:16:32;;;;;;;3.33;0.40;;;;;;;5.97;73.04;95484.94;5030137;28;20033;-59
2021/11/30 07:18:58;;;;;;;0.52;0.30;;;;;;;6.04;71.94;95487.63;5038344;28;20484;-57
2021/11/30 07:21:27;;;;;;;0.77;0.17;;;;;;;5.99;71.60;95504.13;5040263;28;20071;-59
2021/11/30 07:23:55;;;;;;;1.10;0.47;;;;;;;5.98;71.18;95472.44;5039920;28;20032;-58
2021/11/30 07:26:21;;;;;;;1.42;0.40;;;;;;;5.98;71.05;95483.06;5038857;28;20022;-59
2021/11/30 07:28:47;;;;;;;1.35;0.50;;;;;;;5.92;70.99;95507.78;5040474;28;20025;-60
2021/11/30 07:31:13;;;;;;;1.10;0.50;;;;;;;5.78;71.39;95494.47;5040007;28;20134;-58
2021/11/30 07:33:43;;;;;;;0.57;0.30;;;;;;;5.79;71.75;95519.19;5037210;28;20030;-60
2021/11/30 07:36:10;;;;;;;0.75;0.35;;;;;;;5.80;72.32;95502.25;5040404;28;20037;-59
2021/11/30 07:38:37;;;;;;;1.38;0.22;;;;;;;5.75;72.06;95516.94;5041139;28;20569;-56
2021/11/30 07:41:05;;;;;;;0.55;0.30;;;;;;;5.78;72.00;95504.28;5038708;28;20059;-58
2021/11/30 07:43:31;;;;;;;1.48;0.65;;;;;;;5.75;72.06;95495.69;5039259;28;20501;-60
2021/11/30 07:45:56;;;;;;;1.00;0.60;;;;;;;5.73;72.09;95503.03;5040493;28;20195;-58
2021/11/30 07:48:23;;;;;;;1.45;0.60;;;;;;;5.78;72.05;95491.81;5038510;28;20061;-59
2021/11/30 07:50:50;;;;;;;4.50;0.80;;;;;;;5.75;72.58;95501.00;5045039;28;20036;-59
2021/11/30 07:53:16;;;;;;;0.75;0.40;;;;;;;5.69;72.19;95516.91;5037688;28;20037;-61
2021/11/30 07:55:42;;;;;;;1.42;0.55;;;;;;;5.65;72.64;95505.88;5041402;28;20477;-59
2021/11/30 07:58:08;;;;;;;0.75;0.32;;;;;;;5.55;72.27;95535.44;5042089;28;20373;-59
2021/11/30 08:00:34;;;;;;;2.83;0.55;;;;;;;5.45;72.75;95519.91;5043400;28;20025;-62
2021/11/30 08:02:59;;;;;;;3.90;0.50;;;;;;;5.34;72.65;95501.88;5044412;28;20021;-64
2021/11/30 08:05:25;;;;;;;1.05;0.30;;;;;;;5.32;72.55;95518.00;5024505;28;20042;-60
2021/11/30 08:07:51;;;;;;;0.50;0.30;;;;;;;5.09;72.09;95512.19;5046104;28;20036;-62
2021/11/30 08:10:18;;;;;;;0.98;0.30;;;;;;;5.10;72.15;95503.22;5048912;28;20051;-61
2021/11/30 08:12:45;;;;;;;3.70;1.60;;;;;;;5.00;71.65;95503.56;5042695;28;20043;-61
2021/11/30 08:15:13;;;;;;;0.75;0.45;;;;;;;5.06;71.51;95510.72;5046235;28;20462;-60
2021/11/30 08:17:39;;;;;;;1.55;0.50;;;;;;;5.04;71.38;95520.72;5046603;28;20033;-60
2021/11/30 08:20:06;;;;;;;0.65;0.40;;;;;;;4.94;70.40;95501.69;5048688;28;20025;-58
2021/11/30 08:22:32;;;;;;;3.28;0.60;;;;;;;5.03;70.34;95495.22;5048299;28;20040;-61
2021/11/30 08:24:57;;;;;;;1.02;0.40;;;;;;;4.96;69.92;95512.94;5046043;28;20099;-60
2021/11/30 08:27:23;;;;;;;0.52;0.50;;;;;;;4.96;70.00;95494.38;5046416;28;20428;-59
2021/11/30 08:29:50;;;;;;;1.10;0.50;;;;;;;4.87;69.51;95470.66;5040411;28;20057;-59
2021/11/30 08:32:20;;;;;;;0.22;0.22;;;;;;;4.92;68.86;95531.03;5070326;28;20032;-62
2021/11/30 08:34:46;;;;;;;1.00;0.40;;;;;;;4.85;68.62;95522.25;5048675;28;20031;-61
2021/11/30 08:37:11;;;;;;;0.35;0.30;;;;;;;4.76;69.07;95510.13;5051190;28;20033;-60
2021/11/30 08:39:38;;;;;;;0.70;0.38;;;;;;;4.76;68.82;95518.91;5067539;28;20043;-61
2021/11/30 08:42:21;;;;;;;1.92;0.30;;;;;;;4.81;69.91;95503.25;5052781;28;20044;-60
2021/11/30 08:44:50;;;;;;;0.75;0.30;;;;;;;4.78;68.38;95516.88;5066115;28;20079;-60
2021/11/30 08:47:18;;;;;;;0.45;0.35;;;;;;;4.80;67.46;95562.56;5064296;28;20435;-60
2021/11/30 08:49:44;;;;;;;0.95;0.40;;;;;;;4.80;66.36;95503.44;5057552;28;20025;-60
2021/11/30 08:52:16;;;;;;;0.77;0.38;;;;;;;4.83;66.52;95501.22;5069863;28;20086;-60
2021/11/30 08:54:42;;;;;;;0.30;0.15;;;;;;;4.83;65.75;95518.97;5058858;28;20418;-60
2021/11/30 08:57:08;;;;;;;0.82;0.20;;;;;;;4.68;66.00;95501.34;5062872;28;20029;-60
2021/11/30 08:59:35;;;;;;;2.58;0.50;;;;;;;4.70;65.94;95511.72;5066754;28;20036;-60
2021/11/30 09:02:01;;;;;;;0.65;0.25;;;;;;;4.68;65.76;95492.56;5056487;28;20040;-59
2021/11/30 09:04:27;;;;;;;1.17;0.50;;;;;;;4.64;66.33;95497.44;5071172;28;20453;-58
2021/11/30 09:06:53;;;;;;;0.50;0.30;;;;;;;4.70;65.72;95509.91;5063537;28;20079;-60
2021/11/30 09:09:20;;;;;;;0.60;0.30;;;;;;;4.63;66.19;95492.31;5060795;28;20059;-58
2021/11/30 09:11:46;;;;;;;0.70;0.30;;;;;;;4.58;66.41;95487.59;5050298;28;20097;-60
2021/11/30 09:14:12;;;;;;;2.88;0.25;;;;;;;4.52;66.25;95513.03;5062273;28;20473;-60
2021/11/30 09:16:37;;;;;;;0.38;0.17;;;;;;;4.45;65.97;95489.16;5065127;28;20071;-61
2021/11/30 09:19:04;;;;;;;0.65;0.50;;;;;;;4.42;66.38;95502.78;5061242;28;20215;-58
2021/11/30 09:21:30;;;;;;;3.55;0.57;;;;;;;4.11;66.47;95469.56;5055290;28;20037;-60
2021/11/30 09:23:56;;;;;;;0.65;0.40;;;;;;;4.39;67.32;95475.84;5066034;28;20033;-60
2021/11/30 09:26:23;;;;;;;1.88;0.47;;;;;;;4.44;66.73;95499.94;5056508;28;20394;-58
2021/11/30 09:28:48;;;;;;;1.35;0.70;;;;;;;4.32;66.89;95486.38;5065992;28;20039;-57
2021/11/30 09:31:15;;;;;;;1.77;0.52;;;;;;;4.30;67.77;95480.47;5034602;28;20045;-62
2021/11/30 09:33:43;;;;;;;1.65;0.73;;;;;;;4.30;67.56;95499.00;5062624;28;20043;-62
2021/11/30 09:36:10;;;;;;;1.77;0.55;;;;;;;4.23;67.52;95487.56;5037786;28;20499;-62
2021/11/30 09:38:36;;;;;;;1.60;0.60;;;;;;;4.15;67.54;95497.28;5066546;28;20021;-63
2021/11/30 09:41:03;;;;;;;3.08;0.70;;;;;;;4.21;67.35;95468.41;5061880;28;20086;-64
2021/11/30 09:43:32;;;;;;;5.80;0.73;;;;;;;4.16;67.15;95479.53;5059065;28;20033;-63
2021/11/30 09:46:00;;;;;;;1.58;0.50;;;;;;;4.02;67.90;95486.56;5067384;28;20025;-62
2021/11/30 09:48:27;;;;;;;2.72;0.65;;;;;;;3.87;68.31;95484.81;5056248;28;20024;-60
2021/11/30 09:50:54;;;;;;;2.30;0.80;;;;;;;3.83;68.82;95483.53;5063170;28;20445;-64
2021/11/30 09:53:20;;;;;;;1.08;0.77;;;;;;;3.87;69.07;95495.41;5061416;28;20036;-62
2021/11/30 09:55:47;;;;;;;1.27;0.60;;;;;;;3.89;69.27;95487.25;5038162;28;20128;-61
2021/11/30 09:58:14;;;;;;;0.95;0.50;;;;;;;3.83;68.93;95491.47;5068136;28;20028;-63
2021/11/30 10:00:42;;;;;;;1.48;0.40;;;;;;;3.79;69.00;95492.06;5033367;28;20075;-62
2021/11/30 10:03:09;;;;;;;0.68;0.40;;;;;;;3.81;68.97;95480.25;5051320;28;20060;-61
2021/11/30 10:05:35;;;;;;;2.55;0.43;;;;;;;3.43;69.24;95452.22;5069856;28;20039;-63
2021/11/30 10:08:01;;;;;;;1.13;0.50;;;;;;;3.40;68.94;95496.72;5052191;28;20024;-65
2021/11/30 10:10:37;;;;;;;0.82;0.50;;;;;;;3.30;70.26;95497.00;5054416;28;20086;-63
2021/11/30 10:13:02;;;;;;;0.52;0.30;;;;;;;3.23;70.31;95482.88;5061424;28;20086;-63
2021/11/30 10:15:49;;;;;;;0.35;0.22;;;;;;;3.01;70.71;95473.09;5064537;28;20040;-63
2021/11/30 10:18:24;;;;;;;0.70;0.40;;;;;;;2.94;71.25;95476.63;5051015;28;20041;-63
2021/11/30 10:21:08;;;;;;;0.88;0.57;;;;;;;2.89;72.63;95484.28;5057683;28;20028;-63
2021/11/30 10:23:49;;;;;;;0.95;0.35;;;;;;;2.81;73.00;95474.63;5055941;28;20064;-65
2021/11/30 10:26:19;;;;;;;0.85;0.50;;;;;;;2.73;72.39;95481.66;5068041;28;20490;-64
2021/11/30 10:29:01;;;;;;;1.67;0.63;;;;;;;2.67;73.62;95473.63;5058577;28;20040;-62
2021/11/30 10:31:42;;;;;;;0.88;0.60;;;;;;;2.69;74.35;95477.75;5058307;28;20045;-61
2021/11/30 10:34:11;;;;;;;1.35;0.60;;;;;;;2.63;74.31;95457.31;5067476;28;20044;-60
2021/11/30 10:36:47;;;;;;;2.63;0.70;;;;;;;2.62;74.32;95471.53;5045300;28;20059;-62
2021/11/30 10:39:36;;;;;;;1.92;0.85;;;;;;;2.64;75.09;95468.72;5058465;28;20252;-60
2021/11/30 10:42:19;;;;;;;3.38;0.98;;;;;;;2.68;74.19;95473.47;5060396;28;20063;-64
2021/11/30 10:44:47;;;;;;;2.17;0.90;;;;;;;2.55;73.92;95450.34;5062597;28;20082;-61
2021/11/30 10:47:19;;;;;;;2.25;0.95;;;;;;;2.53;74.54;95470.00;5059796;28;20040;-63
2021/11/30 10:49:53;;;;;;;3.03;1.00;;;;;;;2.54;74.08;95451.34;5059798;28;20029;-63
2021/11/30 10:52:25;;;;;;;2.13;1.25;;;;;;;2.28;73.74;95426.19;5062611;28;20086;-65
2021/11/30 10:55:02;;;;;;;0.98;0.80;;;;;;;2.42;73.71;95448.34;5058927;28;20058;-64
2021/11/30 10:57:30;;;;;;;1.33;0.60;;;;;;;2.36;73.43;95446.41;5053128;28;20036;-64
2021/11/30 11:00:15;;;;;;;1.27;0.50;;;;;;;2.49;73.69;95458.16;5059937;28;20032;-57
2021/11/30 11:03:13;;;;;;;3.15;0.50;;;;;;;2.42;73.41;95435.13;5061692;28;20029;-62
2021/11/30 11:05:42;;;;;;;1.23;0.70;;;;;;;2.24;73.30;95424.91;5055007;28;20036;-63
2021/11/30 11:08:16;;;;;;;0.90;0.38;;;;;;;2.28;73.18;95449.13;5061758;28;20037;-63
2021/11/30 11:10:57;;;;;;;2.55;0.55;;;;;;;2.15;73.90;95413.59;5063613;28;20488;-64
2021/11/30 11:13:28;;;;;;;1.50;0.50;;;;;;;2.09;73.86;95422.25;5059510;28;20036;-63
2021/11/30 11:16:03;;;;;;;3.42;0.68;;;;;;;1.98;74.41;95410.31;5059679;28;20530;-63
2021/11/30 11:18:36;;;;;;;2.80;0.70;;;;;;;1.86;74.24;95394.09;5063234;28;20116;-64
2021/11/30 11:21:16;;;;;;;2.42;0.80;;;;;;;2.03;74.55;95411.59;5044240;28;20313;-64
2021/11/30 11:23:54;;;;;;;2.25;0.82;;;;;;;1.96;74.79;95422.06;5057904;28;20043;-63
2021/11/30 11:26:28;;;;;;;1.08;0.73;;;;;;;2.00;74.70;95423.34;5047839;28;20032;-62
2021/11/30 11:28:55;;;;;;;1.35;0.70;;;;;;;1.94;74.89;95411.69;5040310;28;20079;-62
2021/11/30 11:31:23;;;;;;;1.77;0.80;;;;;;;1.91;75.23;95414.66;5060162;28;20057;-63
2021/11/30 11:33:49;;;;;;;2.90;0.82;;;;;;;1.91;75.36;95411.19;5059255;28;20120;-64
2021/11/30 11:36:15;;;;;;;1.25;0.80;;;;;;;1.89;74.53;95395.56;5061955;28;20055;-63
2021/11/30 11:38:41;;;;;;;1.60;0.70;;;;;;;1.89;74.22;95398.22;5058868;28;20434;-60
2021/11/30 11:41:08;;;;;;;4.10;1.23;;;;;;;1.79;74.40;95406.38;5060998;28;20477;-58
2021/11/30 11:43:36;;;;;;;2.15;0.68;;;;;;;1.69;74.36;95411.09;5063993;28;20056;-62
2021/11/30 11:46:02;;;;;;;1.60;0.88;;;;;;;1.69;74.06;95403.16;5059362;28;20103;-63
2021/11/30 11:48:28;;;;;;;1.50;0.60;;;;;;;1.69;73.72;95429.53;5063345;28;20064;-60
2021/11/30 11:50:57;;;;;;;1.60;0.40;;;;;;;1.70;73.40;95402.97;5055278;28;20021;-65
2021/11/30 11:53:28;;;;;;;2.30;0.50;;;;;;;1.62;73.69;95420.66;5061308;28;20043;-63
2021/11/30 11:56:19;;;;;;;0.88;0.30;;;;;;;1.55;74.35;95413.47;5060329;28;20052;-62
2021/11/30 11:58:50;;;;;;;3.17;0.50;;;;;;;1.50;73.92;95436.91;5055101;28;20017;-64